createdAt,value
2023-03-15T00:00:07.756Z,9.00
2023-03-15T00:00:19.993Z,9.00
2023-03-15T00:00:31.973Z,9.00
2023-03-15T00:00:44.096Z,9.00
2023-03-15T00:00:55.793Z,9.00
2023-03-15T00:01:09.074Z,9.00
2023-03-15T00:01:21.641Z,9.00
2023-03-15T00:01:33.508Z,9.00
2023-03-15T00:01:46.701Z,9.00
2023-03-15T00:01:59.081Z,9.00
2023-03-15T00:02:10.916Z,9.00
2023-03-15T00:02:22.690Z,9.00
2023-03-15T00:02:34.514Z,9.00
2023-03-15T00:02:46.715Z,9.00
2023-03-15T00:02:58.618Z,9.00
2023-03-15T00:03:10.655Z,9.00
2023-03-15T00:03:24.474Z,9.00
2023-03-15T00:03:40.073Z,9.00
2023-03-15T00:03:51.974Z,9.00
2023-03-15T00:04:06.048Z,9.00
2023-03-15T00:04:17.953Z,9.00
2023-03-15T00:04:30.294Z,9.00
2023-03-15T00:04:42.205Z,9.00
2023-03-15T00:04:54.867Z,9.00
2023-03-15T00:05:06.804Z,9.00
2023-03-15T00:05:18.506Z,8.90
2023-03-15T00:05:31.948Z,8.90
2023-03-15T00:05:44.803Z,8.90
2023-03-15T00:05:56.498Z,8.90
2023-03-15T00:06:08.350Z,8.90
2023-03-15T00:06:20.079Z,8.90
2023-03-15T00:06:33.817Z,8.90
2023-03-15T00:06:45.551Z,9.00
2023-03-15T00:06:57.309Z,8.90
2023-03-15T00:07:09.203Z,8.90
2023-03-15T00:07:25.944Z,9.00
2023-03-15T00:07:37.838Z,8.90
2023-03-15T00:07:49.673Z,8.90
2023-03-15T00:08:04.346Z,8.90
2023-03-15T00:08:16.279Z,8.90
2023-03-15T00:08:28.170Z,8.90
2023-03-15T00:08:40.174Z,8.90
2023-03-15T00:08:52.038Z,8.90
2023-03-15T00:09:03.994Z,8.90
2023-03-15T00:09:15.767Z,8.90
2023-03-15T00:09:27.566Z,8.90
2023-03-15T00:09:39.310Z,8.90
2023-03-15T00:09:51.957Z,8.90
2023-03-15T00:10:04.427Z,8.90
2023-03-15T00:10:16.644Z,8.90
2023-03-15T00:10:29.071Z,8.90
2023-03-15T00:10:44.009Z,8.90
2023-03-15T00:10:55.731Z,8.90
2023-03-15T00:11:07.556Z,8.80
2023-03-15T00:11:19.425Z,8.80
2023-03-15T00:11:31.344Z,8.90
2023-03-15T00:11:43.059Z,8.90
2023-03-15T00:11:54.786Z,8.90
2023-03-15T00:12:06.799Z,8.80
2023-03-15T00:12:18.740Z,8.80
2023-03-15T00:12:30.503Z,8.80
2023-03-15T00:12:42.894Z,8.80
2023-03-15T00:12:54.748Z,8.80
2023-03-15T00:13:06.526Z,8.70
2023-03-15T00:13:18.335Z,8.70
2023-03-15T00:13:30.691Z,8.80
2023-03-15T00:13:43.026Z,8.70
2023-03-15T00:13:54.891Z,8.70
2023-03-15T00:14:06.885Z,8.70
2023-03-15T00:14:18.705Z,8.70
2023-03-15T00:14:31.643Z,8.70
2023-03-15T00:14:43.500Z,8.70
2023-03-15T00:14:55.400Z,8.70
2023-03-15T00:15:07.663Z,8.70
2023-03-15T00:15:19.753Z,8.70
2023-03-15T00:15:31.566Z,8.70
2023-03-15T00:15:50.582Z,8.70
2023-03-15T00:16:03.609Z,8.70
2023-03-15T00:16:17.685Z,8.70
2023-03-15T00:16:29.949Z,8.70
2023-03-15T00:16:43.103Z,8.70
2023-03-15T00:16:55.062Z,8.70
2023-03-15T00:17:06.857Z,8.70
2023-03-15T00:17:18.696Z,8.70
2023-03-15T00:17:34.889Z,8.70
2023-03-15T00:17:46.813Z,8.70
2023-03-15T00:17:58.632Z,8.70
2023-03-15T00:18:10.766Z,8.70
2023-03-15T00:18:22.956Z,8.70
2023-03-15T00:18:34.743Z,8.70
2023-03-15T00:18:47.517Z,8.70
2023-03-15T00:18:59.351Z,8.70
2023-03-15T00:19:11.149Z,8.70
2023-03-15T00:19:23.604Z,8.70
2023-03-15T00:19:35.388Z,8.80
2023-03-15T00:19:48.154Z,8.80
2023-03-15T00:20:00.162Z,8.80
2023-03-15T00:20:14.751Z,8.80
2023-03-15T00:20:26.623Z,8.80
2023-03-15T00:20:38.628Z,8.80
2023-03-15T00:20:50.710Z,8.80
2023-03-15T00:21:02.564Z,8.80
2023-03-15T00:21:15.001Z,8.80
2023-03-15T00:21:28.789Z,8.80
2023-03-15T00:21:43.290Z,8.90
2023-03-15T00:21:55.423Z,8.90
2023-03-15T00:22:07.421Z,8.90
2023-03-15T00:22:19.345Z,8.90
2023-03-15T00:22:31.170Z,8.90
2023-03-15T00:22:43.055Z,8.90
2023-03-15T00:22:55.048Z,8.90
2023-03-15T00:23:06.828Z,8.90
2023-03-15T00:23:19.144Z,8.90
2023-03-15T00:23:31.839Z,8.90
2023-03-15T00:23:43.584Z,8.90
2023-03-15T00:23:56.343Z,8.90
2023-03-15T00:24:08.235Z,8.90
2023-03-15T00:24:20.131Z,8.90
2023-03-15T00:24:32.194Z,8.90
2023-03-15T00:24:44.006Z,8.80
2023-03-15T00:24:55.751Z,8.80
2023-03-15T00:25:08.015Z,8.80
2023-03-15T00:25:19.918Z,8.80
2023-03-15T00:25:31.729Z,8.80
2023-03-15T00:25:47.211Z,8.80
2023-03-15T00:25:58.951Z,8.80
2023-03-15T00:26:10.818Z,8.80
2023-03-15T00:26:22.743Z,8.80
2023-03-15T00:26:34.768Z,8.80
2023-03-15T00:26:46.855Z,8.80
2023-03-15T00:26:58.736Z,8.80
2023-03-15T00:27:10.720Z,8.80
2023-03-15T00:27:22.576Z,8.70
2023-03-15T00:27:34.407Z,8.70
2023-03-15T00:27:46.121Z,8.70
2023-03-15T00:27:57.977Z,8.70
2023-03-15T00:28:09.708Z,8.80
2023-03-15T00:28:21.719Z,8.70
2023-03-15T00:28:33.466Z,8.70
2023-03-15T00:28:45.268Z,8.70
2023-03-15T00:28:57.129Z,8.70
2023-03-15T00:29:08.874Z,8.70
2023-03-15T00:29:21.030Z,8.70
2023-03-15T00:29:33.071Z,8.70
2023-03-15T00:29:44.869Z,8.70
2023-03-15T00:29:56.618Z,8.70
2023-03-15T00:30:09.179Z,8.70
2023-03-15T00:30:20.976Z,8.70
2023-03-15T00:30:33.039Z,8.70
2023-03-15T00:30:45.002Z,8.70
2023-03-15T00:31:07.461Z,8.70
2023-03-15T00:31:23.584Z,8.70
2023-03-15T00:31:36.411Z,8.70
2023-03-15T00:31:48.428Z,8.70
2023-03-15T00:32:00.135Z,8.70
2023-03-15T00:32:11.996Z,8.60
2023-03-15T00:32:23.731Z,8.70
2023-03-15T00:32:35.535Z,8.70
2023-03-15T00:32:47.684Z,8.60
2023-03-15T00:32:59.488Z,8.70
2023-03-15T00:33:13.690Z,8.60
2023-03-15T00:33:25.764Z,8.60
2023-03-15T00:33:37.506Z,8.60
2023-03-15T00:33:49.516Z,8.60
2023-03-15T00:34:01.291Z,8.60
2023-03-15T00:34:14.002Z,8.60
2023-03-15T00:34:25.968Z,8.60
2023-03-15T00:34:37.845Z,8.60
2023-03-15T00:34:49.643Z,8.60
2023-03-15T00:35:01.825Z,8.60
2023-03-15T00:35:13.721Z,8.70
2023-03-15T00:35:25.468Z,8.70
2023-03-15T00:35:41.138Z,8.60
2023-03-15T00:35:53.715Z,8.60
2023-03-15T00:36:06.828Z,8.60
2023-03-15T00:36:18.709Z,8.60
2023-03-15T00:36:30.658Z,8.60
2023-03-15T00:36:45.959Z,8.60
2023-03-15T00:36:58.067Z,8.60
2023-03-15T00:37:09.875Z,8.60
2023-03-15T00:37:21.717Z,8.60
2023-03-15T00:37:33.558Z,8.60
2023-03-15T00:37:45.606Z,8.60
2023-03-15T00:37:57.328Z,8.60
2023-03-15T00:38:09.041Z,8.60
2023-03-15T00:38:22.225Z,8.50
2023-03-15T00:38:34.653Z,8.50
2023-03-15T00:38:46.369Z,8.50
2023-03-15T00:38:58.167Z,8.50
2023-03-15T00:39:10.513Z,8.50
2023-03-15T00:39:22.287Z,8.50
2023-03-15T00:39:37.896Z,8.50
2023-03-15T00:39:49.963Z,8.50
2023-03-15T00:40:01.983Z,8.50
2023-03-15T00:40:13.918Z,8.50
2023-03-15T00:40:26.122Z,8.50
2023-03-15T00:40:38.221Z,8.50
2023-03-15T00:40:49.954Z,8.50
2023-03-15T00:41:08.708Z,8.50
2023-03-15T00:41:21.360Z,8.50
2023-03-15T00:41:33.494Z,8.50
2023-03-15T00:41:45.969Z,8.50
2023-03-15T00:41:58.109Z,8.50
2023-03-15T00:42:10.079Z,8.50
2023-03-15T00:42:21.922Z,8.50
2023-03-15T00:42:33.884Z,8.50
2023-03-15T00:42:50.545Z,8.50
2023-03-15T00:43:02.385Z,8.50
2023-03-15T00:43:17.928Z,8.50
2023-03-15T00:43:29.712Z,8.50
2023-03-15T00:43:42.234Z,8.50
2023-03-15T00:43:53.992Z,8.50
2023-03-15T00:44:06.702Z,8.50
2023-03-15T00:44:18.756Z,8.50
2023-03-15T00:44:31.251Z,8.50
2023-03-15T00:44:44.091Z,8.40
2023-03-15T00:44:56.176Z,8.40
2023-03-15T00:45:08.568Z,8.40
2023-03-15T00:45:21.112Z,8.50
2023-03-15T00:45:33.029Z,8.50
2023-03-15T00:45:45.383Z,8.50
2023-03-15T00:45:58.533Z,8.40
2023-03-15T00:46:10.941Z,8.40
2023-03-15T00:46:22.771Z,8.50
2023-03-15T00:46:34.745Z,8.40
2023-03-15T00:46:46.504Z,8.50
2023-03-15T00:46:58.315Z,8.50
2023-03-15T00:47:11.381Z,8.40
2023-03-15T00:47:23.125Z,8.50
2023-03-15T00:47:34.877Z,8.40
2023-03-15T00:47:52.810Z,8.50
2023-03-15T00:48:05.050Z,8.40
2023-03-15T00:48:24.337Z,8.40
2023-03-15T00:48:36.535Z,8.50
2023-03-15T00:48:49.859Z,8.50
2023-03-15T00:49:01.782Z,8.50
2023-03-15T00:49:15.474Z,8.50
2023-03-15T00:49:27.606Z,8.50
2023-03-15T00:49:40.072Z,8.50
2023-03-15T00:49:52.286Z,8.50
2023-03-15T00:50:04.262Z,8.50
2023-03-15T00:50:16.076Z,8.50
2023-03-15T00:50:28.497Z,8.50
2023-03-15T00:50:40.281Z,8.50
2023-03-15T00:50:52.101Z,8.40
2023-03-15T00:51:06.891Z,8.50
2023-03-15T00:51:22.747Z,8.40
2023-03-15T00:51:35.457Z,8.40
2023-03-15T00:51:47.607Z,8.40
2023-03-15T00:51:59.412Z,8.40
2023-03-15T00:52:12.643Z,8.40
2023-03-15T00:52:24.541Z,8.40
2023-03-15T00:52:37.149Z,8.40
2023-03-15T00:52:49.132Z,8.40
2023-03-15T00:53:00.871Z,8.40
2023-03-15T00:53:12.697Z,8.40
2023-03-15T00:53:24.816Z,8.40
2023-03-15T00:53:36.969Z,8.30
2023-03-15T00:53:49.382Z,8.30
2023-03-15T00:54:01.254Z,8.30
2023-03-15T00:54:16.127Z,8.40
2023-03-15T00:54:28.018Z,8.30
2023-03-15T00:54:39.836Z,8.40
2023-03-15T00:54:53.361Z,8.30
2023-03-15T00:55:05.549Z,8.40
2023-03-15T00:55:18.894Z,8.40
2023-03-15T00:55:38.921Z,8.40
2023-03-15T00:55:50.721Z,8.40
2023-03-15T00:56:07.027Z,8.40
2023-03-15T00:56:50.297Z,8.40
2023-03-15T00:57:02.952Z,8.40
2023-03-15T00:57:14.816Z,8.40
2023-03-15T00:57:26.974Z,8.40
2023-03-15T00:57:40.652Z,8.40
2023-03-15T00:57:52.604Z,8.40
2023-03-15T00:58:04.883Z,8.40
2023-03-15T00:58:16.809Z,8.40
2023-03-15T00:58:28.881Z,8.40
2023-03-15T00:58:40.692Z,8.40
2023-03-15T00:58:55.660Z,8.40
2023-03-15T00:59:07.593Z,8.40
2023-03-15T00:59:19.516Z,8.40
2023-03-15T00:59:35.357Z,8.40
2023-03-15T00:59:47.243Z,8.40
2023-03-15T00:59:59.074Z,8.40
2023-03-15T01:00:13.929Z,8.40
2023-03-15T01:00:26.086Z,8.40
2023-03-15T01:00:38.675Z,8.40
2023-03-15T01:00:51.910Z,8.40
2023-03-15T01:01:14.156Z,8.30
2023-03-15T01:01:27.587Z,8.40
2023-03-15T01:01:45.098Z,8.30
2023-03-15T01:01:56.985Z,8.40
2023-03-15T01:02:09.039Z,8.30
2023-03-15T01:02:22.601Z,8.30
2023-03-15T01:02:34.504Z,8.30
2023-03-15T01:02:47.647Z,8.30
2023-03-15T01:02:59.470Z,8.40
2023-03-15T01:03:11.256Z,8.40
2023-03-15T01:03:23.255Z,8.40
2023-03-15T01:03:36.815Z,8.40
2023-03-15T01:03:48.805Z,8.40
2023-03-15T01:04:01.894Z,8.40
2023-03-15T01:04:14.323Z,8.40
2023-03-15T01:04:26.845Z,8.40
2023-03-15T01:04:38.632Z,8.40
2023-03-15T01:04:51.689Z,8.40
2023-03-15T01:05:07.436Z,8.40
2023-03-15T01:05:19.262Z,8.40
2023-03-15T01:05:31.384Z,8.40
2023-03-15T01:05:43.169Z,8.40
2023-03-15T01:05:54.998Z,8.40
2023-03-15T01:06:14.597Z,8.40
2023-03-15T01:06:28.015Z,8.40
2023-03-15T01:06:42.570Z,8.40
2023-03-15T01:06:54.402Z,8.40
2023-03-15T01:07:06.126Z,8.40
2023-03-15T01:07:18.058Z,8.40
2023-03-15T01:07:29.806Z,8.40
2023-03-15T01:07:41.642Z,8.40
2023-03-15T01:07:53.482Z,8.40
2023-03-15T01:08:05.387Z,8.40
2023-03-15T01:08:17.093Z,8.40
2023-03-15T01:08:28.867Z,8.40
2023-03-15T01:08:41.250Z,8.40
2023-03-15T01:08:54.526Z,8.40
2023-03-15T01:09:06.333Z,8.40
2023-03-15T01:09:18.279Z,8.40
2023-03-15T01:09:31.466Z,8.40
2023-03-15T01:09:45.854Z,8.40
2023-03-15T01:10:01.530Z,8.40
2023-03-15T01:10:13.859Z,8.40
2023-03-15T01:10:25.675Z,8.40
2023-03-15T01:10:37.551Z,8.40
2023-03-15T01:10:49.421Z,8.40
2023-03-15T01:11:08.923Z,8.40
2023-03-15T01:11:24.128Z,8.40
2023-03-15T01:11:35.900Z,8.40
2023-03-15T01:11:47.629Z,8.40
2023-03-15T01:11:59.465Z,8.40
2023-03-15T01:12:11.135Z,8.40
2023-03-15T01:12:22.906Z,8.40
2023-03-15T01:12:34.842Z,8.40
2023-03-15T01:12:46.597Z,8.40
2023-03-15T01:12:58.311Z,8.40
2023-03-15T01:13:10.076Z,8.40
2023-03-15T01:13:21.858Z,8.40
2023-03-15T01:13:34.153Z,8.30
2023-03-15T01:13:45.985Z,8.30
2023-03-15T01:13:58.665Z,8.40
2023-03-15T01:14:10.451Z,8.30
2023-03-15T01:14:22.264Z,8.30
2023-03-15T01:14:35.818Z,8.30
2023-03-15T01:14:47.602Z,8.30
2023-03-15T01:15:00.176Z,8.30
2023-03-15T01:15:13.434Z,8.30
2023-03-15T01:15:25.277Z,8.30
2023-03-15T01:15:37.505Z,8.30
2023-03-15T01:15:49.596Z,8.30
2023-03-15T01:16:01.408Z,8.30
2023-03-15T01:16:13.771Z,8.30
2023-03-15T01:16:25.924Z,8.30
2023-03-15T01:16:37.760Z,8.30
2023-03-15T01:16:49.566Z,8.40
2023-03-15T01:17:01.409Z,8.30
2023-03-15T01:17:13.143Z,8.40
2023-03-15T01:17:24.895Z,8.40
2023-03-15T01:17:36.650Z,8.30
2023-03-15T01:17:48.471Z,8.40
2023-03-15T01:18:00.226Z,8.30
2023-03-15T01:18:12.094Z,8.30
2023-03-15T01:18:23.909Z,8.30
2023-03-15T01:18:37.324Z,8.30
2023-03-15T01:18:49.227Z,8.30
2023-03-15T01:19:01.054Z,8.30
2023-03-15T01:19:13.269Z,8.30
2023-03-15T01:19:25.022Z,8.30
2023-03-15T01:19:36.985Z,8.30
2023-03-15T01:19:49.079Z,8.30
2023-03-15T01:20:00.966Z,8.30
2023-03-15T01:20:13.736Z,8.30
2023-03-15T01:20:25.535Z,8.30
2023-03-15T01:20:37.359Z,8.30
2023-03-15T01:20:49.173Z,8.30
2023-03-15T01:21:00.998Z,8.30
2023-03-15T01:21:13.803Z,8.30
2023-03-15T01:21:25.599Z,8.30
2023-03-15T01:21:37.372Z,8.30
2023-03-15T01:21:49.111Z,8.30
2023-03-15T01:22:00.828Z,8.30
2023-03-15T01:22:12.628Z,8.30
2023-03-15T01:22:24.504Z,8.30
2023-03-15T01:22:36.279Z,8.30
2023-03-15T01:22:48.119Z,8.30
2023-03-15T01:22:59.812Z,8.30
2023-03-15T01:23:11.709Z,8.30
2023-03-15T01:23:23.547Z,8.30
2023-03-15T01:23:35.361Z,8.30
2023-03-15T01:23:47.360Z,8.30
2023-03-15T01:23:59.146Z,8.30
2023-03-15T01:24:13.098Z,8.30
2023-03-15T01:24:24.906Z,8.30
2023-03-15T01:24:36.773Z,8.30
2023-03-15T01:24:48.566Z,8.30
2023-03-15T01:25:00.324Z,8.30
2023-03-15T01:25:12.137Z,8.30
2023-03-15T01:25:23.869Z,8.30
2023-03-15T01:25:35.583Z,8.30
2023-03-15T01:25:47.414Z,8.30
2023-03-15T01:26:06.319Z,8.30
2023-03-15T01:26:18.188Z,8.30
2023-03-15T01:26:29.978Z,8.30
2023-03-15T01:26:41.727Z,8.30
2023-03-15T01:26:53.453Z,8.30
2023-03-15T01:27:05.572Z,8.30
2023-03-15T01:27:17.452Z,8.30
2023-03-15T01:27:29.283Z,8.30
2023-03-15T01:27:41.075Z,8.30
2023-03-15T01:27:52.901Z,8.30
2023-03-15T01:28:04.853Z,8.30
2023-03-15T01:28:16.631Z,8.30
2023-03-15T01:28:28.673Z,8.30
2023-03-15T01:28:40.740Z,8.30
2023-03-15T01:28:52.506Z,8.30
2023-03-15T01:29:04.318Z,8.30
2023-03-15T01:29:17.970Z,8.30
2023-03-15T01:29:29.753Z,8.30
2023-03-15T01:29:41.627Z,8.30
2023-03-15T01:29:53.414Z,8.30
2023-03-15T01:30:05.914Z,8.30
2023-03-15T01:30:18.509Z,8.30
2023-03-15T01:30:30.385Z,8.30
2023-03-15T01:30:49.930Z,8.30
2023-03-15T01:31:01.807Z,8.30
2023-03-15T01:31:24.487Z,8.30
2023-03-15T01:31:36.381Z,8.30
2023-03-15T01:31:48.351Z,8.30
2023-03-15T01:32:00.280Z,8.30
2023-03-15T01:32:12.065Z,8.30
2023-03-15T01:32:24.024Z,8.30
2023-03-15T01:32:35.922Z,8.30
2023-03-15T01:32:47.859Z,8.30
2023-03-15T01:32:59.735Z,8.30
2023-03-15T01:33:11.561Z,8.30
2023-03-15T01:33:23.329Z,8.30
2023-03-15T01:33:35.076Z,8.30
2023-03-15T01:33:46.885Z,8.30
2023-03-15T01:33:58.939Z,8.30
2023-03-15T01:34:10.681Z,8.30
2023-03-15T01:34:22.401Z,8.30
2023-03-15T01:34:34.737Z,8.30
2023-03-15T01:34:46.563Z,8.30
2023-03-15T01:34:58.330Z,8.30
2023-03-15T01:35:10.362Z,8.30
2023-03-15T01:35:22.101Z,8.30
2023-03-15T01:35:34.108Z,8.30
2023-03-15T01:35:46.196Z,8.30
2023-03-15T01:36:02.675Z,8.30
2023-03-15T01:36:14.783Z,8.30
2023-03-15T01:36:26.601Z,8.30
2023-03-15T01:36:38.557Z,8.30
2023-03-15T01:36:52.572Z,8.30
2023-03-15T01:37:04.823Z,8.20
2023-03-15T01:37:17.132Z,8.20
2023-03-15T01:37:28.907Z,8.30
2023-03-15T01:37:40.698Z,8.30
2023-03-15T01:37:52.418Z,8.30
2023-03-15T01:38:04.185Z,8.30
2023-03-15T01:38:15.966Z,8.30
2023-03-15T01:38:27.853Z,8.30
2023-03-15T01:38:39.571Z,8.30
2023-03-15T01:38:51.486Z,8.30
2023-03-15T01:39:04.037Z,8.30
2023-03-15T01:39:15.815Z,8.20
2023-03-15T01:39:27.512Z,8.30
2023-03-15T01:39:39.275Z,8.30
2023-03-15T01:39:51.132Z,8.30
2023-03-15T01:40:06.684Z,8.20
2023-03-15T01:40:18.661Z,8.20
2023-03-15T01:40:30.346Z,8.20
2023-03-15T01:40:43.047Z,8.20
2023-03-15T01:40:54.857Z,8.20
2023-03-15T01:41:06.712Z,8.30
2023-03-15T01:41:18.681Z,8.20
2023-03-15T01:41:30.490Z,8.30
2023-03-15T01:41:42.172Z,8.20
2023-03-15T01:41:53.842Z,8.20
2023-03-15T01:42:05.687Z,8.20
2023-03-15T01:42:17.454Z,8.20
2023-03-15T01:42:29.245Z,8.20
2023-03-15T01:43:02.855Z,8.20
2023-03-15T01:43:21.588Z,8.20
2023-03-15T01:43:33.752Z,8.20
2023-03-15T01:43:48.635Z,8.10
2023-03-15T01:44:00.374Z,8.10
2023-03-15T01:44:18.640Z,8.20
2023-03-15T01:44:53.466Z,8.20
2023-03-15T01:45:44.006Z,8.10
2023-03-15T01:46:27.073Z,8.10
2023-03-15T01:46:38.842Z,8.10
2023-03-15T01:46:50.944Z,8.10
2023-03-15T01:47:03.028Z,8.10
2023-03-15T01:47:14.962Z,8.10
2023-03-15T01:47:26.862Z,8.10
2023-03-15T01:47:38.570Z,8.10
2023-03-15T01:47:53.421Z,8.10
2023-03-15T01:48:05.515Z,8.10
2023-03-15T01:48:17.210Z,8.10
2023-03-15T01:48:44.791Z,8.10
2023-03-15T01:49:04.953Z,8.10
2023-03-15T01:49:24.062Z,8.10
2023-03-15T01:49:35.866Z,8.10
2023-03-15T01:49:50.788Z,8.10
2023-03-15T01:50:08.050Z,8.10
2023-03-15T01:50:19.877Z,8.10
2023-03-15T01:50:31.562Z,8.10
2023-03-15T01:50:43.265Z,8.00
2023-03-15T01:50:55.175Z,8.00
2023-03-15T01:51:11.330Z,8.10
2023-03-15T01:51:55.207Z,8.00
2023-03-15T01:52:13.077Z,8.00
2023-03-15T01:52:26.609Z,8.00
2023-03-15T01:52:39.446Z,8.00
2023-03-15T01:52:51.212Z,8.00
2023-03-15T01:53:03.236Z,8.00
2023-03-15T01:53:14.975Z,8.00
2023-03-15T01:53:26.665Z,8.00
2023-03-15T01:53:38.732Z,8.00
2023-03-15T01:54:29.834Z,8.00
2023-03-15T01:54:53.407Z,8.00
2023-03-15T01:55:11.251Z,8.00
2023-03-15T01:55:24.120Z,7.90
2023-03-15T01:55:35.811Z,8.00
2023-03-15T01:55:47.678Z,8.00
2023-03-15T01:55:59.377Z,8.00
2023-03-15T01:56:11.054Z,8.00
2023-03-15T01:56:23.149Z,8.00
2023-03-15T01:56:35.537Z,8.00
2023-03-15T01:56:52.980Z,8.00
2023-03-15T01:57:16.575Z,8.00
2023-03-15T01:57:31.460Z,8.00
2023-03-15T01:57:50.355Z,8.00
2023-03-15T01:58:02.163Z,8.00
2023-03-15T01:58:14.030Z,8.00
2023-03-15T01:58:26.303Z,8.00
2023-03-15T01:58:38.494Z,8.00
2023-03-15T01:58:50.536Z,8.00
2023-03-15T01:59:03.826Z,7.90
2023-03-15T01:59:18.405Z,7.90
2023-03-15T01:59:39.076Z,8.00
2023-03-15T01:59:56.340Z,8.00
2023-03-15T02:00:15.590Z,8.00
2023-03-15T02:00:27.698Z,8.00
2023-03-15T02:00:39.501Z,8.00
2023-03-15T02:00:52.955Z,8.00
2023-03-15T02:01:04.969Z,8.00
2023-03-15T02:01:16.819Z,8.00
2023-03-15T02:01:28.554Z,7.90
2023-03-15T02:01:45.417Z,7.90
2023-03-15T02:01:57.491Z,7.90
2023-03-15T02:02:09.493Z,7.90
2023-03-15T02:02:22.633Z,7.90
2023-03-15T02:02:34.577Z,7.90
2023-03-15T02:02:56.114Z,7.90
2023-03-15T02:03:16.306Z,7.90
2023-03-15T02:03:35.304Z,7.90
2023-03-15T02:03:47.801Z,7.90
2023-03-15T02:04:29.346Z,7.80
2023-03-15T02:04:49.856Z,7.80
2023-03-15T02:05:05.966Z,7.80
2023-03-15T02:05:37.752Z,7.80
2023-03-15T02:05:54.834Z,7.80
2023-03-15T02:06:08.098Z,7.80
2023-03-15T02:06:20.055Z,7.80
2023-03-15T02:06:34.896Z,7.80
2023-03-15T02:06:46.757Z,7.80
2023-03-15T02:06:59.518Z,7.80
2023-03-15T02:07:11.322Z,7.80
2023-03-15T02:07:23.396Z,7.80
2023-03-15T02:07:35.205Z,7.80
2023-03-15T02:07:50.048Z,7.80
2023-03-15T02:08:02.175Z,7.80
2023-03-15T02:08:15.737Z,7.80
2023-03-15T02:08:30.074Z,7.80
2023-03-15T02:08:42.747Z,7.80
2023-03-15T02:08:59.464Z,7.80
2023-03-15T02:09:15.041Z,7.80
2023-03-15T02:09:38.086Z,7.80
2023-03-15T02:09:52.761Z,7.80
2023-03-15T02:10:10.006Z,7.80
2023-03-15T02:10:25.692Z,7.80
2023-03-15T02:10:38.741Z,7.80
2023-03-15T02:10:51.795Z,7.80
2023-03-15T02:11:04.247Z,7.80
2023-03-15T02:11:16.080Z,7.80
2023-03-15T02:11:27.915Z,7.80
2023-03-15T02:11:39.588Z,7.70
2023-03-15T02:11:51.353Z,7.70
2023-03-15T02:12:04.266Z,7.70
2023-03-15T02:12:15.987Z,7.70
2023-03-15T02:12:28.478Z,7.70
2023-03-15T02:12:47.165Z,7.70
2023-03-15T02:12:58.890Z,7.70
2023-03-15T02:13:11.468Z,7.70
2023-03-15T02:13:24.056Z,7.70
2023-03-15T02:13:36.322Z,7.70
2023-03-15T02:13:48.829Z,7.70
2023-03-15T02:14:00.718Z,7.60
2023-03-15T02:14:12.585Z,7.70
2023-03-15T02:14:24.536Z,7.60
2023-03-15T02:14:36.278Z,7.60
2023-03-15T02:14:48.197Z,7.60
2023-03-15T02:15:01.011Z,7.60
2023-03-15T02:15:13.460Z,7.60
2023-03-15T02:15:25.329Z,7.60
2023-03-15T02:15:37.132Z,7.60
2023-03-15T02:15:49.064Z,7.60
2023-03-15T02:16:00.910Z,7.60
2023-03-15T02:16:12.684Z,7.60
2023-03-15T02:16:24.489Z,7.60
2023-03-15T02:16:36.319Z,7.60
2023-03-15T02:16:49.011Z,7.60
2023-03-15T02:17:00.817Z,7.60
2023-03-15T02:17:12.613Z,7.60
2023-03-15T02:17:26.071Z,7.60
2023-03-15T02:17:45.687Z,7.60
2023-03-15T02:17:57.479Z,7.60
2023-03-15T02:18:09.173Z,7.60
2023-03-15T02:18:20.967Z,7.60
2023-03-15T02:18:35.764Z,7.60
2023-03-15T02:18:47.916Z,7.60
2023-03-15T02:18:59.834Z,7.60
2023-03-15T02:19:18.437Z,7.60
2023-03-15T02:19:47.195Z,7.60
2023-03-15T02:20:12.068Z,7.60
2023-03-15T02:20:36.478Z,7.60
2023-03-15T02:21:08.730Z,7.70
2023-03-15T02:21:43.286Z,7.60
2023-03-15T02:22:01.947Z,7.70
2023-03-15T02:22:36.399Z,7.60
2023-03-15T02:23:05.136Z,7.60
2023-03-15T02:23:21.161Z,7.60
2023-03-15T02:23:32.944Z,7.60
2023-03-15T02:23:44.871Z,7.60
2023-03-15T02:24:18.146Z,7.60
2023-03-15T02:24:29.953Z,7.60
2023-03-15T02:24:45.807Z,7.60
2023-03-15T02:25:20.770Z,7.60
2023-03-15T02:25:57.489Z,7.60
2023-03-15T02:26:27.984Z,7.60
2023-03-15T02:26:44.661Z,7.70
2023-03-15T02:26:57.046Z,7.60
2023-03-15T02:27:08.802Z,7.60
2023-03-15T02:27:24.455Z,7.60
2023-03-15T02:27:36.417Z,7.60
2023-03-15T02:27:48.260Z,7.60
2023-03-15T02:28:00.079Z,7.60
2023-03-15T02:28:13.070Z,7.60
2023-03-15T02:28:24.819Z,7.60
2023-03-15T02:28:36.694Z,7.60
2023-03-15T02:28:48.443Z,7.60
2023-03-15T02:29:00.272Z,7.60
2023-03-15T02:29:12.029Z,7.60
2023-03-15T02:29:24.557Z,7.60
2023-03-15T02:29:36.268Z,7.60
2023-03-15T02:29:48.174Z,7.60
2023-03-15T02:29:59.989Z,7.60
2023-03-15T02:30:11.879Z,7.60
2023-03-15T02:30:23.756Z,7.60
2023-03-15T02:30:35.506Z,7.60
2023-03-15T02:30:47.274Z,7.60
2023-03-15T02:30:59.061Z,7.60
2023-03-15T02:31:10.835Z,7.60
2023-03-15T02:31:22.695Z,7.60
2023-03-15T02:31:38.122Z,7.60
2023-03-15T02:31:50.013Z,7.60
2023-03-15T02:32:04.585Z,7.60
2023-03-15T02:32:16.375Z,7.70
2023-03-15T02:32:28.160Z,7.70
2023-03-15T02:32:40.047Z,7.70
2023-03-15T02:32:51.867Z,7.70
2023-03-15T02:33:05.530Z,7.60
2023-03-15T02:33:34.762Z,7.60
2023-03-15T02:33:49.343Z,7.60
2023-03-15T02:34:02.934Z,7.60
2023-03-15T02:34:14.794Z,7.60
2023-03-15T02:34:26.613Z,7.60
2023-03-15T02:34:38.368Z,7.60
2023-03-15T02:34:50.135Z,7.60
2023-03-15T02:35:02.009Z,7.60
2023-03-15T02:35:23.428Z,7.60
2023-03-15T02:35:35.172Z,7.60
2023-03-15T02:35:46.987Z,7.60
2023-03-15T02:36:12.157Z,7.60
2023-03-15T02:36:28.025Z,7.60
2023-03-15T02:36:39.737Z,7.50
2023-03-15T02:36:51.964Z,7.50
2023-03-15T02:37:03.724Z,7.50
2023-03-15T02:37:15.582Z,7.50
2023-03-15T02:37:27.324Z,7.50
2023-03-15T02:37:39.150Z,7.50
2023-03-15T02:37:50.883Z,7.50
2023-03-15T02:38:02.801Z,7.50
2023-03-15T02:38:14.534Z,7.50
2023-03-15T02:38:26.259Z,7.60
2023-03-15T02:38:38.053Z,7.50
2023-03-15T02:38:50.127Z,7.50
2023-03-15T02:39:02.204Z,7.50
2023-03-15T02:39:18.490Z,7.50
2023-03-15T02:39:30.610Z,7.50
2023-03-15T02:39:42.334Z,7.50
2023-03-15T02:39:54.074Z,7.50
2023-03-15T02:40:18.039Z,7.50
2023-03-15T02:40:30.599Z,7.50
2023-03-15T02:40:42.376Z,7.50
2023-03-15T02:40:54.114Z,7.60
2023-03-15T02:41:06.087Z,7.60
2023-03-15T02:41:19.709Z,7.60
2023-03-15T02:41:40.132Z,7.60
2023-03-15T02:41:53.944Z,7.60
2023-03-15T02:42:05.810Z,7.60
2023-03-15T02:42:17.719Z,7.60
2023-03-15T02:42:29.562Z,7.60
2023-03-15T02:42:42.539Z,7.60
2023-03-15T02:42:56.503Z,7.60
2023-03-15T02:43:14.250Z,7.60
2023-03-15T02:43:27.394Z,7.60
2023-03-15T02:43:39.244Z,7.70
2023-03-15T02:43:52.641Z,7.70
2023-03-15T02:44:18.892Z,7.60
2023-03-15T02:44:32.578Z,7.60
2023-03-15T02:44:44.864Z,7.60
2023-03-15T02:44:56.610Z,7.60
2023-03-15T02:45:08.911Z,7.70
2023-03-15T02:45:21.246Z,7.60
2023-03-15T02:45:33.056Z,7.70
2023-03-15T02:45:45.054Z,7.70
2023-03-15T02:45:56.870Z,7.70
2023-03-15T02:46:08.737Z,7.70
2023-03-15T02:46:20.495Z,7.70
2023-03-15T02:46:32.312Z,7.70
2023-03-15T02:46:44.299Z,7.70
2023-03-15T02:46:57.810Z,7.70
2023-03-15T02:47:15.367Z,7.60
2023-03-15T02:47:31.199Z,7.70
2023-03-15T02:47:43.004Z,7.70
2023-03-15T02:47:55.409Z,7.70
2023-03-15T02:48:07.108Z,7.70
2023-03-15T02:48:19.020Z,7.70
2023-03-15T02:48:31.861Z,7.70
2023-03-15T02:48:43.709Z,7.70
2023-03-15T02:48:55.595Z,7.60
2023-03-15T02:49:07.681Z,7.60
2023-03-15T02:49:21.921Z,7.60
2023-03-15T02:49:37.279Z,7.60
2023-03-15T02:49:52.411Z,7.60
2023-03-15T02:50:04.562Z,7.60
2023-03-15T02:50:16.474Z,7.60
2023-03-15T02:50:28.191Z,7.60
2023-03-15T02:50:40.018Z,7.60
2023-03-15T02:50:51.872Z,7.60
2023-03-15T02:51:03.706Z,7.60
2023-03-15T02:51:23.670Z,7.60
2023-03-15T02:51:35.426Z,7.60
2023-03-15T02:51:47.110Z,7.60
2023-03-15T02:51:58.862Z,7.60
2023-03-15T02:52:12.119Z,7.60
2023-03-15T02:52:23.800Z,7.60
2023-03-15T02:52:35.530Z,7.60
2023-03-15T02:52:47.325Z,7.60
2023-03-15T02:52:59.207Z,7.60
2023-03-15T02:53:12.291Z,7.60
2023-03-15T02:53:24.047Z,7.60
2023-03-15T02:53:35.781Z,7.60
2023-03-15T02:53:47.752Z,7.60
2023-03-15T02:53:59.617Z,7.60
2023-03-15T02:54:11.342Z,7.60
2023-03-15T02:54:23.017Z,7.60
2023-03-15T02:54:34.753Z,7.60
2023-03-15T02:54:46.743Z,7.60
2023-03-15T02:54:58.452Z,7.60
2023-03-15T02:55:10.390Z,7.60
2023-03-15T02:55:22.130Z,7.60
2023-03-15T02:55:34.003Z,7.60
2023-03-15T02:55:45.786Z,7.60
2023-03-15T02:55:57.697Z,7.60
2023-03-15T02:56:09.404Z,7.60
2023-03-15T02:56:21.460Z,7.60
2023-03-15T02:56:33.650Z,7.60
2023-03-15T02:56:45.553Z,7.60
2023-03-15T02:56:57.404Z,7.60
2023-03-15T02:57:16.366Z,7.60
2023-03-15T02:57:28.327Z,7.60
2023-03-15T02:57:40.228Z,7.60
2023-03-15T02:57:52.105Z,7.60
2023-03-15T02:58:03.888Z,7.60
2023-03-15T02:58:15.632Z,7.60
2023-03-15T02:58:27.440Z,7.60
2023-03-15T02:58:39.334Z,7.60